createdAt,value
2023-05-11T00:01:40.873Z,3.47
2023-05-11T00:04:24.107Z,3.15
2023-05-11T00:07:01.545Z,3.00
2023-05-11T00:09:42.790Z,2.75
2023-05-11T00:12:15.705Z,3.17
2023-05-11T00:14:55.968Z,3.47
2023-05-11T00:17:47.906Z,2.50
2023-05-11T00:20:28.117Z,3.47
2023-05-11T00:23:04.387Z,2.97
2023-05-11T00:25:46.025Z,3.10
2023-05-11T00:28:38.515Z,2.78
2023-05-11T00:31:24.800Z,3.17
2023-05-11T00:34:08.171Z,3.15
2023-05-11T00:36:54.391Z,3.42
2023-05-11T00:39:40.422Z,2.78
2023-05-11T00:42:28.549Z,3.10
2023-05-11T00:45:12.387Z,2.67
2023-05-11T00:47:49.817Z,2.88
2023-05-11T00:50:28.834Z,2.80
2023-05-11T00:53:11.493Z,2.85
2023-05-11T00:55:56.567Z,2.97
2023-05-11T00:58:35.778Z,3.17
2023-05-11T01:01:22.065Z,2.88
2023-05-11T01:04:00.109Z,3.03
2023-05-11T01:06:53.164Z,2.75
2023-05-11T01:09:48.384Z,3.13
2023-05-11T01:12:49.148Z,3.10
2023-05-11T01:15:40.091Z,3.00
2023-05-11T01:18:35.691Z,3.05
2023-05-11T01:21:19.781Z,2.53
2023-05-11T01:24:10.379Z,3.08
2023-05-11T01:27:07.936Z,3.20
2023-05-11T01:30:14.641Z,2.97
2023-05-11T01:32:52.255Z,3.40
2023-05-11T01:35:37.490Z,3.53
2023-05-11T01:38:16.026Z,3.30
2023-05-11T01:41:00.257Z,3.05
2023-05-11T01:43:46.487Z,3.13
2023-05-11T01:46:27.527Z,2.88
2023-05-11T01:48:59.670Z,3.40
2023-05-11T01:51:40.823Z,3.10
2023-05-11T01:54:22.653Z,3.10
2023-05-11T01:56:57.496Z,3.22
2023-05-11T01:59:49.022Z,3.00
2023-05-11T02:02:25.937Z,3.08
2023-05-11T02:04:59.832Z,3.40
2023-05-11T02:07:36.554Z,2.70
2023-05-11T02:10:15.890Z,3.75
2023-05-11T02:12:55.793Z,3.58
2023-05-11T02:15:39.227Z,3.97
2023-05-11T02:18:18.114Z,3.50
2023-05-11T02:21:04.912Z,3.40
2023-05-11T02:23:46.949Z,3.15
2023-05-11T02:26:25.151Z,2.50
2023-05-11T02:29:04.781Z,2.85
2023-05-11T02:31:51.659Z,3.38
2023-05-11T02:34:41.260Z,3.30
2023-05-11T02:37:20.951Z,3.13
2023-05-11T02:40:03.818Z,3.55
2023-05-11T02:42:39.476Z,3.38
2023-05-11T02:45:22.597Z,3.03
2023-05-11T02:48:02.404Z,3.40
2023-05-11T02:50:39.948Z,3.70
2023-05-11T02:56:17.208Z,3.40
2023-05-11T02:59:07.878Z,3.72
2023-05-11T03:04:22.789Z,3.40
2023-05-11T03:06:58.048Z,3.45
2023-05-11T03:09:49.400Z,3.88
2023-05-11T03:12:25.111Z,3.72
2023-05-11T03:15:05.914Z,3.65
2023-05-11T03:17:48.877Z,3.60
2023-05-11T03:20:29.322Z,3.90
2023-05-11T03:23:02.635Z,3.03
2023-05-11T03:25:47.441Z,3.15
2023-05-11T03:28:27.958Z,3.30
2023-05-11T03:31:12.783Z,3.50
2023-05-11T03:33:54.001Z,3.35
2023-05-11T03:36:30.824Z,3.55
2023-05-11T03:39:12.336Z,3.75
2023-05-11T03:41:56.725Z,3.42
2023-05-11T03:44:30.912Z,3.75
2023-05-11T03:47:18.722Z,3.42
2023-05-11T03:50:02.613Z,2.88
2023-05-11T03:52:40.836Z,3.40
2023-05-11T03:55:22.585Z,3.78
2023-05-11T03:57:58.332Z,3.25
2023-05-11T04:00:49.113Z,2.97
2023-05-11T04:03:31.512Z,3.92
2023-05-11T04:06:09.437Z,3.13
2023-05-11T04:08:50.474Z,3.90
2023-05-11T04:11:30.721Z,3.50
2023-05-11T04:14:23.959Z,3.67
2023-05-11T04:17:05.210Z,3.45
2023-05-11T04:19:43.971Z,3.83
2023-05-11T04:22:24.396Z,3.95
2023-05-11T04:25:07.091Z,3.28
2023-05-11T04:27:50.355Z,4.22
2023-05-11T04:30:31.412Z,4.38
2023-05-11T04:33:13.053Z,4.68
2023-05-11T04:35:59.027Z,4.18
2023-05-11T04:38:38.353Z,3.92
2023-05-11T04:41:24.054Z,3.40
2023-05-11T04:44:09.360Z,3.83
2023-05-11T04:46:51.421Z,3.10
2023-05-11T04:49:54.030Z,3.80
2023-05-11T04:52:34.680Z,3.42
2023-05-11T04:55:20.474Z,3.60
2023-05-11T04:58:01.359Z,3.20
2023-05-11T05:00:57.745Z,3.63
2023-05-11T05:03:36.452Z,3.72
2023-05-11T05:06:28.590Z,4.05
2023-05-11T05:09:22.898Z,4.47
2023-05-11T05:12:17.632Z,4.00
2023-05-11T05:17:55.624Z,4.90
2023-05-11T05:20:42.753Z,4.07
2023-05-11T05:23:29.449Z,4.20
2023-05-11T05:26:12.796Z,4.38
2023-05-11T05:29:05.035Z,4.60
2023-05-11T05:31:51.425Z,3.92
2023-05-11T05:34:34.876Z,4.00
2023-05-11T05:37:24.371Z,4.38
2023-05-11T05:40:12.839Z,5.53
2023-05-11T05:43:06.333Z,4.55
2023-05-11T05:45:52.496Z,4.65
2023-05-11T05:48:29.369Z,4.65
2023-05-11T05:51:04.881Z,4.90
2023-05-11T05:53:45.337Z,4.90
2023-05-11T05:56:31.628Z,4.32
2023-05-11T05:59:20.044Z,4.75
2023-05-11T06:02:12.685Z,5.20
2023-05-11T06:04:58.652Z,4.15
2023-05-11T06:07:42.994Z,4.88
2023-05-11T06:10:23.920Z,5.35
2023-05-11T06:13:17.551Z,4.22
2023-05-11T06:16:04.317Z,4.88
2023-05-11T06:18:56.098Z,5.43
2023-05-11T06:21:41.833Z,4.70
2023-05-11T06:24:36.119Z,5.20
2023-05-11T06:27:21.356Z,4.88
2023-05-11T06:30:09.017Z,4.70
2023-05-11T06:33:00.389Z,5.57
2023-05-11T06:36:06.625Z,4.82
2023-05-11T06:38:49.368Z,5.45
2023-05-11T06:42:06.765Z,5.07
2023-05-11T06:45:01.354Z,4.88
2023-05-11T06:47:40.022Z,5.05
2023-05-11T06:50:20.922Z,5.38
2023-05-11T06:52:58.149Z,4.93
2023-05-11T06:55:43.576Z,5.68
2023-05-11T06:58:29.577Z,5.07
2023-05-11T07:01:15.979Z,5.35
2023-05-11T07:04:03.562Z,5.13
2023-05-11T07:06:41.596Z,5.35
2023-05-11T07:09:29.610Z,5.80
2023-05-11T07:12:18.771Z,5.80
2023-05-11T07:14:59.088Z,5.70
2023-05-11T07:17:57.903Z,6.20
2023-05-11T07:20:44.839Z,6.00
2023-05-11T07:23:29.940Z,5.35
2023-05-11T07:26:11.168Z,5.30
2023-05-11T07:28:49.913Z,5.47
2023-05-11T07:31:36.554Z,5.50
2023-05-11T07:34:25.298Z,6.25
2023-05-11T07:37:17.113Z,5.38
2023-05-11T07:42:55.255Z,4.63
2023-05-11T07:45:28.059Z,5.32
2023-05-11T07:48:14.529Z,5.10
2023-05-11T07:50:55.825Z,5.00
2023-05-11T07:53:36.741Z,5.43
2023-05-11T07:56:23.278Z,5.45
2023-05-11T07:59:08.631Z,5.15
2023-05-11T08:01:53.244Z,4.80
2023-05-11T08:04:39.104Z,5.53
2023-05-11T08:07:26.000Z,4.47
2023-05-11T08:10:10.035Z,4.55
2023-05-11T08:13:01.780Z,4.20
2023-05-11T08:15:45.251Z,4.45
2023-05-11T08:18:24.205Z,4.50
2023-05-11T08:21:10.872Z,4.68
2023-05-11T08:24:00.624Z,4.75
2023-05-11T08:26:46.881Z,4.03
2023-05-11T08:29:40.088Z,3.95
2023-05-11T08:32:18.414Z,3.90
2023-05-11T08:35:07.396Z,4.00
2023-05-11T08:37:55.012Z,3.03
2023-05-11T08:40:46.746Z,3.95
2023-05-11T08:43:31.270Z,2.85
2023-05-11T08:46:08.059Z,3.38
2023-05-11T08:48:50.484Z,3.10
2023-05-11T08:51:34.018Z,4.07
2023-05-11T08:54:09.279Z,3.70
2023-05-11T08:57:09.035Z,3.72
2023-05-11T08:59:54.634Z,2.90
2023-05-11T09:02:36.493Z,3.40
2023-05-11T09:05:23.351Z,2.83
2023-05-11T09:08:08.994Z,3.10
2023-05-11T09:10:49.705Z,3.10
2023-05-11T09:13:35.981Z,2.67
2023-05-11T09:16:33.032Z,2.95
2023-05-11T09:19:22.450Z,2.80
2023-05-11T09:22:07.871Z,2.78
2023-05-11T09:24:48.353Z,3.00
2023-05-11T09:27:30.038Z,3.65
2023-05-11T09:30:22.080Z,2.80
2023-05-11T09:33:26.465Z,2.90
2023-05-11T09:36:06.135Z,3.83
2023-05-11T09:38:57.302Z,2.53
2023-05-11T09:41:54.907Z,3.03
2023-05-11T09:44:38.200Z,3.10
2023-05-11T09:47:27.953Z,3.08
2023-05-11T09:50:18.853Z,2.50
2023-05-11T09:53:07.217Z,2.58
2023-05-11T09:55:51.697Z,2.83
2023-05-11T09:58:48.858Z,2.15
2023-05-11T10:01:45.029Z,2.28
2023-05-11T10:04:40.784Z,2.38
2023-05-11T10:07:39.305Z,2.35
2023-05-11T10:10:22.872Z,2.45
2023-05-11T10:13:03.601Z,2.67
2023-05-11T10:15:41.011Z,2.15
2023-05-11T10:18:27.018Z,3.28
2023-05-11T10:21:18.277Z,2.33
2023-05-11T10:23:57.034Z,2.80
2023-05-11T10:26:36.393Z,2.92
2023-05-11T10:29:22.071Z,3.17
2023-05-11T10:32:02.124Z,2.13
2023-05-11T10:34:51.026Z,2.58
2023-05-11T10:37:24.516Z,2.55
2023-05-11T10:43:13.471Z,2.30
2023-05-11T10:46:33.036Z,2.70
2023-05-11T10:49:42.863Z,2.60
2023-05-11T10:53:12.250Z,2.40
2023-05-11T10:56:24.178Z,2.47
2023-05-11T10:59:14.336Z,2.78
2023-05-11T11:02:00.556Z,2.38
2023-05-11T11:04:55.002Z,2.00
2023-05-11T11:07:35.738Z,2.35
2023-05-11T11:10:09.175Z,2.10
2023-05-11T11:13:07.126Z,2.53
2023-05-11T11:16:00.832Z,2.50
2023-05-11T11:18:38.881Z,3.08
2023-05-11T11:21:42.793Z,2.30
2023-05-11T11:24:44.891Z,2.45
2023-05-11T11:27:43.326Z,1.98
2023-05-11T11:30:34.814Z,2.22
2023-05-11T11:33:48.157Z,1.75
2023-05-11T11:36:56.377Z,1.85
2023-05-11T11:39:25.567Z,1.85
2023-05-11T11:42:14.028Z,2.13
2023-05-11T11:45:17.897Z,1.73
2023-05-11T11:48:20.860Z,1.70
2023-05-11T11:51:13.462Z,2.05
2023-05-11T11:54:09.066Z,1.92
2023-05-11T11:56:52.982Z,1.45
2023-05-11T11:59:31.165Z,2.10
2023-05-11T12:02:10.755Z,2.03
2023-05-11T12:05:14.315Z,1.88
2023-05-11T12:07:59.259Z,2.17
2023-05-11T12:10:36.397Z,2.03
2023-05-11T12:13:26.377Z,2.17
2023-05-11T12:16:22.950Z,2.30
2023-05-11T12:19:04.507Z,3.03
2023-05-11T12:21:47.804Z,2.15
2023-05-11T12:24:29.509Z,1.70
2023-05-11T12:27:12.134Z,1.90
2023-05-11T12:30:23.348Z,1.42
2023-05-11T12:33:13.550Z,1.90
2023-05-11T12:36:04.444Z,2.05
2023-05-11T12:38:48.642Z,2.88
2023-05-11T12:41:39.239Z,1.67
2023-05-11T12:44:34.993Z,2.13
2023-05-11T12:47:30.382Z,2.13
2023-05-11T12:50:12.068Z,1.67
2023-05-11T12:52:56.807Z,1.90
2023-05-11T12:55:43.232Z,1.85
2023-05-11T12:58:26.634Z,2.50
2023-05-11T13:01:02.024Z,2.40
2023-05-11T13:03:54.645Z,2.22
2023-05-11T13:06:29.279Z,2.47
2023-05-11T13:09:28.077Z,1.73
2023-05-11T13:12:41.596Z,1.80
2023-05-11T13:15:29.038Z,1.90
2023-05-11T13:18:16.535Z,2.17
2023-05-11T13:21:13.913Z,2.00
2023-05-11T13:23:57.672Z,1.65
2023-05-11T13:26:54.999Z,1.88
2023-05-11T13:29:39.330Z,1.98
2023-05-11T13:32:15.228Z,1.45
2023-05-11T13:34:59.110Z,1.83
2023-05-11T13:37:41.463Z,1.60
2023-05-11T13:40:25.047Z,1.95
2023-05-11T13:43:04.173Z,1.75
2023-05-11T13:46:00.376Z,1.63
2023-05-11T13:48:43.943Z,1.70
2023-05-11T13:51:23.021Z,2.10
2023-05-11T13:54:13.276Z,1.70
2023-05-11T13:56:54.389Z,2.22
2023-05-11T13:59:40.636Z,1.70
2023-05-11T14:02:25.401Z,1.80
2023-05-11T14:05:07.233Z,1.50
2023-05-11T14:07:59.302Z,2.03
2023-05-11T14:10:48.830Z,1.90
2023-05-11T14:13:40.952Z,1.80
2023-05-11T14:16:37.967Z,2.13
2023-05-11T14:19:15.372Z,1.60
2023-05-11T14:22:02.042Z,1.50
2023-05-11T14:24:42.454Z,1.75
2023-05-11T14:27:27.319Z,1.83
2023-05-11T14:30:09.301Z,1.67
2023-05-11T14:33:08.055Z,1.38
2023-05-11T14:35:55.895Z,1.95
2023-05-11T14:38:38.752Z,2.10
2023-05-11T14:41:25.766Z,1.63
2023-05-11T14:44:06.829Z,1.80
2023-05-11T14:46:54.015Z,1.92
2023-05-11T14:49:46.114Z,1.50
2023-05-11T14:52:27.057Z,1.80
2023-05-11T14:55:25.720Z,1.70
2023-05-11T14:58:14.772Z,1.90
2023-05-11T15:00:58.991Z,1.85
2023-05-11T15:03:41.293Z,1.80
2023-05-11T15:06:30.904Z,1.92
2023-05-11T15:12:28.087Z,1.90
2023-05-11T15:15:23.387Z,1.67
2023-05-11T15:17:59.019Z,1.90
2023-05-11T15:20:48.812Z,1.90
2023-05-11T15:23:30.740Z,2.28
2023-05-11T15:26:24.498Z,1.65
2023-05-11T15:29:00.980Z,1.65
2023-05-11T15:31:39.942Z,2.03
2023-05-11T15:34:20.754Z,1.52
2023-05-11T15:37:11.397Z,1.70
2023-05-11T15:39:47.198Z,1.48
2023-05-11T15:42:37.044Z,1.98
2023-05-11T15:45:20.781Z,1.65
2023-05-11T15:48:14.880Z,1.77
2023-05-11T15:50:55.395Z,2.13
2023-05-11T15:53:40.028Z,1.80
2023-05-11T15:56:20.907Z,2.42
2023-05-11T15:59:05.377Z,2.15
2023-05-11T16:02:01.051Z,1.95
2023-05-11T16:04:47.930Z,1.90
2023-05-11T16:07:31.432Z,2.17
2023-05-11T16:10:20.471Z,1.53
2023-05-11T16:13:04.026Z,1.80
2023-05-11T16:15:51.245Z,2.50
2023-05-11T16:18:33.093Z,2.17
2023-05-11T16:21:34.885Z,2.50
2023-05-11T16:24:27.032Z,2.70
2023-05-11T16:27:11.383Z,2.63
2023-05-11T16:30:21.786Z,3.22
2023-05-11T16:33:14.860Z,2.50
2023-05-11T16:39:12.345Z,3.10
2023-05-11T16:42:05.953Z,2.70
2023-05-11T16:44:49.280Z,2.00
2023-05-11T16:47:33.044Z,2.38
2023-05-11T16:50:24.564Z,2.38
2023-05-11T16:53:16.298Z,2.10
2023-05-11T16:56:03.375Z,2.05
2023-05-11T16:58:50.360Z,2.08
2023-05-11T17:01:46.657Z,2.13
2023-05-11T17:04:32.899Z,2.13
2023-05-11T17:07:17.032Z,2.20
2023-05-11T17:09:59.659Z,2.53
2023-05-11T17:13:01.466Z,2.05
2023-05-11T17:15:36.843Z,2.13
2023-05-11T17:18:20.866Z,2.67
2023-05-11T17:21:04.416Z,2.33
2023-05-11T17:23:48.036Z,2.35
2023-05-11T17:26:43.175Z,2.45
2023-05-11T17:29:31.171Z,2.42
2023-05-11T17:32:17.343Z,2.42
2023-05-11T17:35:08.006Z,2.15
2023-05-11T17:37:48.673Z,2.30
2023-05-11T17:40:33.241Z,2.40
2023-05-11T17:43:13.892Z,2.35
2023-05-11T17:46:03.125Z,2.50
2023-05-11T17:48:53.175Z,2.63
2023-05-11T17:51:32.956Z,2.42
2023-05-11T17:54:13.847Z,2.67
2023-05-11T17:57:05.152Z,2.55
2023-05-11T17:59:47.603Z,2.05
2023-05-11T18:02:38.007Z,2.88
2023-05-11T18:05:40.503Z,2.38
2023-05-11T18:08:34.694Z,3.40
2023-05-11T18:11:30.068Z,3.38
2023-05-11T18:14:10.806Z,2.45
2023-05-11T18:16:54.658Z,2.28
2023-05-11T18:19:39.017Z,2.58
2023-05-11T18:22:17.409Z,2.58
2023-05-11T18:25:03.078Z,2.97
2023-05-11T18:27:46.886Z,2.67
2023-05-11T18:30:29.645Z,2.67
2023-05-11T18:33:22.200Z,2.78
2023-05-11T18:35:59.046Z,2.65
2023-05-11T18:38:37.051Z,2.88
2023-05-11T18:41:22.042Z,2.60
2023-05-11T18:43:57.410Z,2.70
2023-05-11T18:46:38.772Z,2.47
2023-05-11T18:49:24.268Z,2.80
2023-05-11T18:52:05.921Z,3.13
2023-05-11T18:54:46.655Z,2.80
2023-05-11T18:57:35.705Z,2.30
2023-05-11T19:00:20.203Z,2.40
2023-05-11T19:03:06.164Z,2.47
2023-05-11T19:05:57.468Z,2.40
2023-05-11T19:08:35.271Z,2.50
2023-05-11T19:11:29.482Z,2.17
2023-05-11T19:14:08.339Z,2.90
2023-05-11T19:16:50.243Z,2.65
2023-05-11T19:19:31.414Z,2.63
2023-05-11T19:22:18.172Z,2.65
2023-05-11T19:25:07.340Z,2.72
2023-05-11T19:27:46.344Z,2.70
2023-05-11T19:30:27.662Z,2.33
2023-05-11T19:33:08.489Z,3.50
2023-05-11T19:35:49.382Z,2.58
2023-05-11T19:38:31.007Z,2.67
2023-05-11T19:41:16.649Z,2.50
2023-05-11T19:44:09.095Z,2.30
2023-05-11T19:46:56.466Z,2.20
2023-05-11T19:49:39.495Z,2.33
2023-05-11T19:52:24.338Z,2.60
2023-05-11T19:55:08.812Z,2.28
2023-05-11T19:57:44.665Z,2.67
2023-05-11T20:00:31.528Z,3.17
2023-05-11T20:03:26.454Z,3.00
2023-05-11T20:06:14.185Z,2.92
2023-05-11T20:08:53.135Z,3.67
2023-05-11T20:11:39.472Z,3.13
2023-05-11T20:14:14.848Z,3.30
2023-05-11T20:17:10.272Z,2.60
2023-05-11T20:19:53.201Z,3.55
2023-05-11T20:22:41.001Z,3.30
2023-05-11T20:25:24.214Z,3.00
2023-05-11T20:28:11.891Z,2.92
2023-05-11T20:30:55.278Z,3.00
2023-05-11T20:36:39.384Z,3.10
2023-05-11T20:39:27.233Z,2.92
2023-05-11T20:42:11.184Z,2.95
2023-05-11T20:45:02.596Z,3.05
2023-05-11T20:47:57.170Z,3.00
2023-05-11T20:50:38.995Z,3.03
2023-05-11T20:53:23.445Z,3.63
2023-05-11T20:59:04.552Z,3.17
2023-05-11T21:01:53.500Z,3.38
2023-05-11T21:04:31.267Z,3.33
2023-05-11T21:07:11.481Z,3.38
2023-05-11T21:10:09.524Z,3.03
2023-05-11T21:12:41.977Z,3.67
2023-05-11T21:15:17.028Z,3.53
2023-05-11T21:18:18.401Z,3.45
2023-05-11T21:21:34.681Z,3.25
2023-05-11T21:24:17.923Z,3.35
2023-05-11T21:27:06.832Z,3.78
2023-05-11T21:29:43.258Z,3.85
2023-05-11T21:32:28.014Z,4.03
2023-05-11T21:35:11.710Z,5.32
2023-05-11T21:38:01.017Z,3.05
2023-05-11T21:40:56.857Z,3.95
2023-05-11T21:43:37.506Z,3.70
2023-05-11T21:46:18.325Z,3.50
2023-05-11T21:49:10.594Z,3.97
2023-05-11T21:51:54.406Z,4.28
2023-05-11T21:54:37.381Z,3.92
2023-05-11T21:57:20.883Z,3.75
2023-05-11T22:00:04.907Z,4.47
2023-05-11T22:05:18.926Z,4.03
2023-05-11T22:08:13.353Z,3.97
2023-05-11T22:11:06.940Z,4.07
2023-05-11T22:13:53.380Z,4.15
2023-05-11T22:16:37.243Z,4.68
2023-05-11T22:19:20.441Z,4.00
2023-05-11T22:22:03.270Z,3.95
2023-05-11T22:24:45.169Z,3.63
2023-05-11T22:27:23.509Z,3.80
2023-05-11T22:30:01.809Z,4.53
2023-05-11T22:32:48.021Z,4.32
2023-05-11T22:38:09.783Z,4.25
2023-05-11T22:40:41.118Z,4.20
2023-05-11T22:43:30.363Z,4.35
2023-05-11T22:46:17.273Z,4.35
2023-05-11T22:48:58.047Z,4.65
2023-05-11T22:51:42.372Z,4.40
2023-05-11T22:54:31.783Z,4.38
2023-05-11T22:57:17.983Z,5.38
2023-05-11T23:00:04.369Z,4.90
2023-05-11T23:02:49.416Z,4.45
2023-05-11T23:05:35.534Z,4.50
2023-05-11T23:08:21.636Z,4.75
2023-05-11T23:11:04.372Z,4.90
2023-05-11T23:13:42.833Z,5.45
2023-05-11T23:16:26.721Z,5.60
2023-05-11T23:19:10.086Z,4.93
2023-05-11T23:21:58.898Z,4.35
2023-05-11T23:24:48.271Z,5.50
2023-05-11T23:27:31.977Z,5.15
2023-05-11T23:30:14.051Z,7.50
2023-05-11T23:32:51.467Z,6.43
2023-05-11T23:35:38.326Z,7.72
2023-05-11T23:38:30.844Z,6.50
2023-05-11T23:41:11.617Z,5.30
2023-05-11T23:43:55.261Z,6.53
2023-05-11T23:46:36.066Z,6.15
2023-05-11T23:49:13.995Z,7.03
2023-05-11T23:52:01.890Z,6.40
2023-05-11T23:54:46.246Z,6.32
2023-05-11T23:57:26.961Z,7.28
